Aeroporto :
LOGIN :

Iscrizione | Disclaimer

   EN    FR    IT 

 










Sommario :    VFR   VFR Marginale   IFR   IFR Intensivo   IFR Molto Intensivo
Visibilità : 
Base nubi : 
>= 8 km
>= 3000ft
5 / 8 km
1000 / 3000 ft
1500m / 5 km
500 / 1000 ft
800 / 1500m
200 / 500 ft
< 800m
< 200 ft
Simboli :   Temporali  Nebbia  Neve Forte  Precipitazioni Forti  Vento > 20 kt
SIGMETs :   Varie  Temporali  Ghiacco  Turbolenza  Onda orograficha  Ceneri Vulcaniche






- Altitudine del aeroporto : 287 ft


LFRL - Lanveoc Poulmic

ULTIMO METAR :
  • 140600Z AUTO 11007KT 9999 -RA FEW004 OVC094 12/11 Q1004 BECMG RA BKN004 BKN013TCU

METARs OBSOLETI :
  • 140530Z AUTO 10005KT 9999 -RA FEW004 SCT039 BKN062 12/11 Q1004 BECMG RA BKN004 BKN013TCU
  • 140500Z AUTO 10005KT 9999 -RA FEW004/// BKN013/// BKN032/// ///TCU 12/11 Q1005
  • 140430Z AUTO 11006KT 9999 -RA SCT006 BKN010 BKN016 12/11 Q1005
  • 140400Z AUTO 12007KT 9999 BKN012 BKN019 BKN024 12/12 Q1006
  • 140330Z AUTO 14005KT 9999 -RA BKN014 BKN019 BKN034 12/11 Q1006

TAF TAF LFRL
Valido dal 14 a 06 ore il 15 a 06 ore UTC


140500Z 1406/1506 13010KT 9999 RA BKN004 BKN013TCU
BECMG 1409/1412 22010KT BKN015
TEMPO 1412/1506 2000 SHRA BKN008 BKN014TCU



MetMap, La meteo Aeronautica in un colpo d'occhio ! - Copyright ORBIFLY Dicembre 2007 - Disclaimer

ORBIFLY MET'MAP TEAM :

Programmazione e sviluppo : Alexandra Zaïnal
Concezione e sviluppo : Baudouin d'Aumeries
Co-Programmazione e sviluppo : Marc-Olivier Méhu
Supporto tecnico e logistico : Manuel Goepfert
Aiuto per la traduzione : Arnaldo La Scala

Contatto : metmap@orbifly.com




FONTI E CREDITI :

   NOAA